createdAt,value
2023-01-31T00:00:38.616Z,16.12
2023-01-31T00:03:23.911Z,16.11
2023-01-31T00:05:52.748Z,16.10
2023-01-31T00:08:21.785Z,16.08
2023-01-31T00:10:50.488Z,16.03
2023-01-31T00:13:20.779Z,16.01
2023-01-31T00:15:49.502Z,15.99
2023-01-31T00:18:18.586Z,15.96
2023-01-31T00:20:47.047Z,15.94
2023-01-31T00:23:16.096Z,15.93
2023-01-31T00:25:44.492Z,15.90
2023-01-31T00:28:13.299Z,15.89
2023-01-31T00:30:41.753Z,15.85
2023-01-31T00:33:10.479Z,15.84
2023-01-31T00:35:40.927Z,15.82
2023-01-31T00:38:11.128Z,15.79
2023-01-31T00:40:39.908Z,15.79
2023-01-31T00:43:09.971Z,15.76
2023-01-31T00:45:38.676Z,15.76
2023-01-31T00:48:09.056Z,15.74
2023-01-31T00:50:38.109Z,15.71
2023-01-31T00:53:07.420Z,15.65
2023-01-31T00:55:37.387Z,15.68
2023-01-31T00:58:06.456Z,15.65
2023-01-31T01:00:35.356Z,15.64
2023-01-31T01:03:05.587Z,15.63
2023-01-31T01:05:34.454Z,15.59
2023-01-31T01:08:03.730Z,15.58
2023-01-31T01:10:32.389Z,15.56
2023-01-31T01:13:01.111Z,15.54
2023-01-31T01:15:29.542Z,15.54
2023-01-31T01:17:58.326Z,15.52
2023-01-31T01:20:26.758Z,15.50
2023-01-31T01:22:55.939Z,15.49
2023-01-31T01:25:24.701Z,15.47
2023-01-31T01:27:53.542Z,15.46
2023-01-31T01:30:22.108Z,15.44
2023-01-31T01:32:50.890Z,15.43
2023-01-31T01:35:19.533Z,15.42
2023-01-31T01:37:49.667Z,15.39
2023-01-31T01:40:18.590Z,15.37
2023-01-31T01:42:47.416Z,15.35
2023-01-31T01:45:16.602Z,15.34
2023-01-31T01:47:57.328Z,15.33
2023-01-31T01:50:46.864Z,15.33
2023-01-31T02:53:12.663Z,15.00
2023-01-31T02:56:18.173Z,14.96
2023-01-31T02:58:55.374Z,14.99
2023-01-31T03:01:31.280Z,14.99
2023-01-31T03:04:13.033Z,14.93
2023-01-31T03:07:26.840Z,14.94
2023-01-31T03:10:13.253Z,14.94
2023-01-31T03:13:44.052Z,14.92
2023-01-31T03:16:46.805Z,14.75
2023-01-31T03:19:24.065Z,14.89
2023-01-31T03:22:02.023Z,14.87
2023-01-31T03:24:30.861Z,14.87
2023-01-31T03:26:59.714Z,14.85
2023-01-31T03:29:29.089Z,14.84
2023-01-31T03:32:03.526Z,14.82
2023-01-31T03:34:33.495Z,14.80
2023-01-31T03:37:45.587Z,14.78
2023-01-31T03:40:26.707Z,14.78
2023-01-31T03:43:05.877Z,14.78
2023-01-31T03:45:44.504Z,14.75
2023-01-31T03:48:15.331Z,14.75
2023-01-31T03:51:17.349Z,14.72
2023-01-31T03:53:55.776Z,14.68
2023-01-31T03:56:54.546Z,14.70
2023-01-31T03:59:28.520Z,14.69
2023-01-31T04:01:59.937Z,14.69
2023-01-31T04:04:43.027Z,14.68
2023-01-31T04:07:12.141Z,14.63
2023-01-31T04:09:41.905Z,14.62
2023-01-31T04:12:12.766Z,14.64
2023-01-31T04:14:41.944Z,14.63
2023-01-31T04:17:10.725Z,14.61
2023-01-31T04:19:39.183Z,14.61
2023-01-31T04:22:08.011Z,14.57
2023-01-31T04:24:36.825Z,14.58
2023-01-31T04:27:06.033Z,14.57
2023-01-31T04:29:34.780Z,14.55
2023-01-31T04:32:03.913Z,14.56
2023-01-31T04:34:32.910Z,14.56
2023-01-31T04:37:03.183Z,14.54
2023-01-31T04:39:32.029Z,14.54
2023-01-31T04:42:01.013Z,14.56
2023-01-31T04:44:29.774Z,14.59
2023-01-31T04:47:00.336Z,14.65
2023-01-31T04:49:29.075Z,14.69
2023-01-31T04:51:58.965Z,14.77
2023-01-31T04:54:27.863Z,14.96
2023-01-31T04:56:56.793Z,14.97
2023-01-31T04:59:25.523Z,15.11
2023-01-31T05:01:55.032Z,15.16
2023-01-31T05:04:23.951Z,15.24
2023-01-31T05:06:54.007Z,15.37
2023-01-31T05:09:22.985Z,15.49
2023-01-31T05:11:51.938Z,15.53
2023-01-31T05:14:21.321Z,15.55
2023-01-31T05:16:50.090Z,15.60
2023-01-31T05:19:18.555Z,15.78
2023-01-31T05:21:59.395Z,15.80
2023-01-31T05:24:30.524Z,15.91
2023-01-31T05:27:02.546Z,15.94
2023-01-31T05:29:33.472Z,15.99
2023-01-31T05:32:03.704Z,16.05
2023-01-31T05:34:33.643Z,16.09
2023-01-31T05:37:02.594Z,16.14
2023-01-31T05:39:31.518Z,16.26
2023-01-31T05:42:00.787Z,16.36
2023-01-31T05:44:29.311Z,16.36
2023-01-31T05:46:58.106Z,16.49
2023-01-31T05:49:26.625Z,16.56
2023-01-31T05:51:55.462Z,16.49
2023-01-31T05:54:24.003Z,16.80
2023-01-31T05:56:54.009Z,16.81
2023-01-31T05:59:22.605Z,16.82
2023-01-31T06:01:51.362Z,16.87
2023-01-31T06:04:19.735Z,16.80
2023-01-31T06:06:48.524Z,17.05
2023-01-31T06:09:16.944Z,17.01
2023-01-31T06:11:45.765Z,16.97
2023-01-31T06:14:14.154Z,17.03
2023-01-31T06:16:43.103Z,17.19
2023-01-31T06:19:11.713Z,17.12
2023-01-31T06:21:40.580Z,17.22
2023-01-31T06:24:09.264Z,17.20
2023-01-31T06:26:38.234Z,17.23
2023-01-31T06:29:07.358Z,17.14
2023-01-31T06:31:36.227Z,17.11
2023-01-31T06:34:04.595Z,17.07
2023-01-31T06:36:34.271Z,17.00
2023-01-31T06:39:04.320Z,16.94
2023-01-31T06:41:33.135Z,16.91
2023-01-31T06:44:01.783Z,16.87
2023-01-31T06:46:30.707Z,16.90
2023-01-31T06:48:59.287Z,16.83
2023-01-31T06:51:28.122Z,16.73
2023-01-31T06:53:56.850Z,16.67
2023-01-31T06:56:25.695Z,16.65
2023-01-31T06:58:54.734Z,16.64
2023-01-31T07:01:24.863Z,16.52
2023-01-31T07:03:53.448Z,16.51
2023-01-31T07:06:23.344Z,16.46
2023-01-31T07:08:52.559Z,16.40
2023-01-31T07:11:21.608Z,16.34
2023-01-31T07:13:50.631Z,16.26
2023-01-31T07:16:20.057Z,16.26
2023-01-31T07:18:48.684Z,16.24
2023-01-31T07:21:17.493Z,16.17
2023-01-31T07:23:46.653Z,16.13
2023-01-31T07:26:15.613Z,16.09
2023-01-31T07:28:44.140Z,16.02
2023-01-31T07:31:14.285Z,15.97
2023-01-31T07:33:42.974Z,15.97
2023-01-31T07:36:14.969Z,15.93
2023-01-31T07:38:43.890Z,15.92
2023-01-31T07:41:27.308Z,15.86
2023-01-31T07:43:56.148Z,15.82
2023-01-31T07:46:24.645Z,15.80
2023-01-31T07:48:53.597Z,15.78
2023-01-31T07:51:22.116Z,15.75
2023-01-31T07:53:51.110Z,15.74
2023-01-31T07:56:21.598Z,15.70
2023-01-31T07:58:50.897Z,15.67
2023-01-31T08:01:41.533Z,15.65
2023-01-31T08:04:21.662Z,15.59
2023-01-31T08:06:53.868Z,15.57
2023-01-31T08:09:23.686Z,15.57
2023-01-31T08:11:52.667Z,15.53
2023-01-31T08:14:25.733Z,15.50
2023-01-31T08:16:57.455Z,15.45
2023-01-31T08:19:27.055Z,15.47
2023-01-31T08:21:55.553Z,15.43
2023-01-31T08:24:24.389Z,15.37
2023-01-31T08:26:53.127Z,15.36
2023-01-31T08:29:22.439Z,15.38
2023-01-31T08:31:52.369Z,15.36
2023-01-31T08:34:23.447Z,15.37
2023-01-31T08:36:52.119Z,15.31
2023-01-31T08:39:22.281Z,15.29
2023-01-31T08:41:50.858Z,15.29
2023-01-31T08:44:19.784Z,15.27
2023-01-31T08:46:48.345Z,15.33
2023-01-31T08:49:17.378Z,15.34
2023-01-31T08:51:46.266Z,15.35
2023-01-31T08:54:16.588Z,15.31
2023-01-31T08:56:45.152Z,15.30
2023-01-31T08:59:14.130Z,15.32
2023-01-31T09:01:45.986Z,15.31
2023-01-31T09:04:14.931Z,15.35
2023-01-31T09:06:43.442Z,15.39
2023-01-31T09:09:12.366Z,15.37
2023-01-31T09:11:40.895Z,15.38
2023-01-31T09:14:09.735Z,15.39
2023-01-31T09:16:39.000Z,15.36
2023-01-31T09:19:08.125Z,15.41
2023-01-31T09:21:37.086Z,15.48
2023-01-31T09:24:06.497Z,15.47
2023-01-31T09:26:35.337Z,15.45
2023-01-31T09:29:04.258Z,15.47
2023-01-31T09:31:33.404Z,15.49
2023-01-31T09:34:03.336Z,15.49
2023-01-31T09:36:32.047Z,15.47
2023-01-31T09:39:00.875Z,15.45
2023-01-31T09:41:44.939Z,15.49
2023-01-31T09:44:40.584Z,15.58
2023-01-31T09:47:28.778Z,15.58
2023-01-31T09:50:07.747Z,15.55
2023-01-31T09:52:37.568Z,15.57
2023-01-31T09:55:08.738Z,15.51
2023-01-31T09:58:04.743Z,15.55
2023-01-31T10:00:37.199Z,15.54
2023-01-31T10:03:39.725Z,15.58
2023-01-31T10:06:29.423Z,15.51
2023-01-31T10:09:11.045Z,15.51
2023-01-31T10:12:05.165Z,15.55
2023-01-31T10:14:53.573Z,15.51
2023-01-31T10:17:31.720Z,15.53
2023-01-31T10:20:11.479Z,15.54
2023-01-31T10:23:03.213Z,15.56
2023-01-31T10:25:37.677Z,15.51
2023-01-31T10:28:32.412Z,15.55
2023-01-31T10:31:17.777Z,15.48
2023-01-31T10:34:11.325Z,15.51
2023-01-31T10:36:53.465Z,15.57
2023-01-31T10:39:44.164Z,15.65
2023-01-31T10:42:23.880Z,15.73
2023-01-31T10:45:20.478Z,15.80
2023-01-31T10:47:54.569Z,15.92
2023-01-31T10:51:05.486Z,16.04
2023-01-31T10:54:13.353Z,16.17
2023-01-31T10:56:47.390Z,16.26
2023-01-31T10:59:37.075Z,16.39
2023-01-31T11:02:06.008Z,16.53
2023-01-31T11:04:43.438Z,16.59
2023-01-31T11:07:12.794Z,16.65
2023-01-31T11:09:49.195Z,16.76
2023-01-31T11:12:18.783Z,16.86
2023-01-31T11:15:04.421Z,17.00
2023-01-31T11:17:33.571Z,17.07
2023-01-31T11:20:02.910Z,17.14
2023-01-31T11:22:33.432Z,17.21
2023-01-31T11:25:04.618Z,17.28
2023-01-31T11:27:43.855Z,17.39
2023-01-31T11:30:35.475Z,17.42
2023-01-31T11:33:05.559Z,17.46
2023-01-31T11:35:35.556Z,17.53
2023-01-31T11:38:24.895Z,17.61
2023-01-31T11:40:53.570Z,17.67
2023-01-31T11:43:26.209Z,17.70
2023-01-31T11:46:02.117Z,17.77
2023-01-31T11:48:37.053Z,17.89
2023-01-31T11:51:05.649Z,17.96
2023-01-31T11:53:39.729Z,18.02
2023-01-31T11:56:20.334Z,18.10
2023-01-31T11:58:50.485Z,18.12
2023-01-31T12:01:22.123Z,18.16
2023-01-31T12:04:03.130Z,18.14
2023-01-31T12:06:37.752Z,18.11
2023-01-31T12:09:19.921Z,17.53
2023-01-31T12:11:56.482Z,16.99
2023-01-31T12:14:41.483Z,16.74
2023-01-31T12:17:14.570Z,16.71
2023-01-31T12:20:29.302Z,17.23
2023-01-31T12:23:11.267Z,17.50
2023-01-31T12:25:52.350Z,17.59
2023-01-31T12:28:29.273Z,17.62
2023-01-31T12:31:31.600Z,17.59
2023-01-31T12:34:21.972Z,17.57
2023-01-31T12:37:02.837Z,17.57
2023-01-31T12:39:38.440Z,17.56
2023-01-31T12:42:28.949Z,17.53
2023-01-31T12:45:17.303Z,17.51
2023-01-31T12:48:14.906Z,17.51
2023-01-31T12:50:46.619Z,17.45
2023-01-31T12:53:33.705Z,17.41
2023-01-31T12:56:13.032Z,17.37
2023-01-31T12:59:03.114Z,17.33
2023-01-31T13:01:48.964Z,17.28
2023-01-31T13:04:21.142Z,17.27
2023-01-31T13:06:57.210Z,17.25
2023-01-31T13:09:34.398Z,17.21
2023-01-31T13:12:14.970Z,17.21
2023-01-31T13:15:35.962Z,17.15
2023-01-31T13:18:06.086Z,17.14
2023-01-31T13:21:02.022Z,17.14
2023-01-31T13:23:40.207Z,17.13
2023-01-31T13:26:40.384Z,17.10
2023-01-31T13:29:47.112Z,17.07
2023-01-31T13:32:46.530Z,17.07
2023-01-31T13:35:22.724Z,17.05
2023-01-31T13:37:56.470Z,17.01
2023-01-31T13:40:28.109Z,17.02
2023-01-31T13:43:00.211Z,17.02
2023-01-31T13:45:35.812Z,16.99
2023-01-31T13:48:11.121Z,17.00
2023-01-31T13:50:42.979Z,16.98
2023-01-31T13:53:36.349Z,16.96
2023-01-31T13:56:05.904Z,16.93
2023-01-31T13:58:35.482Z,16.90
2023-01-31T14:01:17.912Z,16.88
2023-01-31T14:04:15.144Z,16.86
2023-01-31T14:07:08.491Z,16.87
2023-01-31T14:09:46.618Z,16.82
2023-01-31T14:12:17.944Z,16.87
2023-01-31T14:14:53.839Z,16.86
2023-01-31T14:17:22.252Z,16.85
2023-01-31T14:19:58.127Z,16.78
2023-01-31T14:22:41.560Z,16.72
2023-01-31T14:25:14.184Z,16.64
2023-01-31T14:27:57.634Z,16.62
2023-01-31T14:30:29.614Z,16.57
2023-01-31T14:33:13.051Z,16.50
2023-01-31T14:36:08.254Z,16.55
2023-01-31T14:38:53.942Z,16.51
2023-01-31T14:41:56.923Z,16.57
2023-01-31T14:45:11.930Z,16.56
2023-01-31T14:47:43.684Z,16.59
2023-01-31T14:50:24.483Z,16.61
2023-01-31T14:53:13.128Z,16.59
2023-01-31T14:55:54.755Z,16.55
2023-01-31T14:58:26.661Z,16.52
2023-01-31T15:01:01.295Z,16.58
2023-01-31T15:03:56.731Z,16.54
2023-01-31T15:06:41.153Z,16.53
2023-01-31T15:09:16.411Z,16.52
2023-01-31T15:11:57.009Z,16.44
2023-01-31T15:14:41.923Z,16.50
2023-01-31T15:17:35.521Z,16.47
2023-01-31T15:20:19.319Z,16.45
2023-01-31T15:22:48.142Z,16.43
2023-01-31T15:25:40.157Z,16.42
2023-01-31T15:28:10.912Z,16.40
2023-01-31T15:30:40.948Z,16.37
2023-01-31T15:33:28.473Z,16.36
2023-01-31T15:36:21.493Z,16.32
2023-01-31T15:39:05.045Z,16.28
2023-01-31T15:41:40.208Z,16.22
2023-01-31T15:44:30.377Z,16.11
2023-01-31T15:46:59.428Z,16.10
2023-01-31T15:49:40.432Z,16.04
2023-01-31T15:52:21.538Z,15.99
2023-01-31T15:55:03.045Z,15.95
2023-01-31T15:57:37.711Z,15.91
2023-01-31T16:00:07.484Z,15.87
2023-01-31T16:02:39.323Z,15.84
2023-01-31T16:05:08.758Z,15.82
2023-01-31T16:07:37.861Z,15.83
2023-01-31T16:10:07.025Z,15.90
2023-01-31T16:12:36.748Z,15.93
2023-01-31T16:15:07.154Z,15.97
2023-01-31T16:17:36.442Z,16.09
2023-01-31T16:20:06.088Z,16.18
2023-01-31T16:22:35.256Z,16.22
2023-01-31T16:25:05.379Z,16.25
2023-01-31T16:27:37.750Z,16.35
2023-01-31T16:30:07.493Z,16.47
2023-01-31T16:32:38.450Z,16.59
2023-01-31T16:35:19.738Z,16.67
2023-01-31T16:37:49.347Z,16.70
2023-01-31T16:40:18.041Z,16.74
2023-01-31T16:42:47.239Z,16.80
2023-01-31T16:45:30.898Z,16.87
2023-01-31T16:48:28.257Z,16.93
2023-01-31T16:50:58.458Z,16.96
2023-01-31T16:53:31.536Z,17.04
2023-01-31T16:56:15.286Z,17.11
2023-01-31T16:58:56.697Z,17.24
2023-01-31T17:01:35.089Z,17.38
2023-01-31T17:04:17.934Z,17.41
2023-01-31T17:07:02.284Z,17.45
2023-01-31T17:09:31.583Z,17.48
2023-01-31T17:12:00.684Z,17.64
2023-01-31T17:14:33.317Z,17.75
2023-01-31T17:17:12.723Z,17.73
2023-01-31T17:19:45.175Z,17.90
2023-01-31T17:22:15.355Z,17.96
2023-01-31T17:24:45.134Z,17.95
2023-01-31T17:27:17.825Z,18.04
2023-01-31T17:29:49.661Z,18.10
2023-01-31T17:32:20.668Z,18.10
2023-01-31T17:34:49.996Z,18.13
2023-01-31T17:37:30.073Z,18.14
2023-01-31T17:40:01.197Z,18.30
2023-01-31T17:42:30.382Z,18.23
2023-01-31T17:45:01.359Z,18.25
2023-01-31T17:47:30.334Z,18.26
2023-01-31T17:50:00.639Z,18.24
2023-01-31T17:52:29.618Z,18.37
2023-01-31T17:54:58.902Z,18.42
2023-01-31T17:57:27.895Z,18.40
2023-01-31T17:59:57.326Z,18.46
2023-01-31T18:02:26.356Z,18.44
2023-01-31T18:04:55.825Z,18.33
2023-01-31T18:07:24.755Z,18.35
2023-01-31T18:09:54.095Z,18.23
2023-01-31T18:12:23.054Z,18.26
2023-01-31T18:14:52.448Z,18.21
2023-01-31T18:17:21.714Z,18.09
2023-01-31T18:19:52.175Z,18.07
2023-01-31T18:22:21.305Z,18.04
2023-01-31T18:24:50.694Z,17.95
2023-01-31T18:27:19.850Z,17.89
2023-01-31T18:29:49.394Z,17.86
2023-01-31T18:32:20.173Z,17.80
2023-01-31T18:34:49.968Z,17.77
2023-01-31T18:37:21.854Z,17.72
2023-01-31T18:39:51.941Z,17.68
2023-01-31T18:42:21.322Z,17.64
2023-01-31T18:44:51.863Z,17.69
2023-01-31T18:47:20.740Z,17.77
2023-01-31T18:49:50.075Z,17.83
2023-01-31T18:52:18.908Z,17.81
2023-01-31T18:54:49.828Z,17.94
2023-01-31T18:57:18.600Z,17.99
2023-01-31T18:59:47.698Z,18.04
2023-01-31T19:02:16.469Z,18.12
2023-01-31T19:04:45.619Z,18.18
2023-01-31T19:07:14.357Z,18.19
2023-01-31T19:09:43.448Z,18.31
2023-01-31T19:12:12.134Z,18.25
2023-01-31T19:14:41.069Z,18.19
2023-01-31T19:17:09.717Z,18.11
2023-01-31T19:19:38.852Z,18.09
2023-01-31T19:22:07.453Z,18.05
2023-01-31T19:24:36.440Z,18.00
2023-01-31T19:27:04.999Z,17.89
2023-01-31T19:29:35.022Z,17.90
2023-01-31T19:32:03.675Z,17.85
2023-01-31T19:34:33.648Z,17.82
2023-01-31T19:37:02.237Z,17.74
2023-01-31T19:39:31.250Z,17.72
2023-01-31T19:41:59.936Z,17.64
2023-01-31T19:44:28.903Z,17.62
2023-01-31T19:46:57.635Z,17.56
2023-01-31T19:49:28.281Z,17.54
2023-01-31T19:51:56.906Z,17.50
2023-01-31T19:54:27.950Z,17.48
2023-01-31T19:56:56.718Z,17.47
2023-01-31T19:59:25.922Z,17.49
2023-01-31T20:01:54.897Z,17.52
2023-01-31T20:04:24.071Z,17.61
2023-01-31T20:06:52.682Z,17.58
2023-01-31T20:09:23.138Z,17.66
2023-01-31T20:11:54.028Z,17.73
2023-01-31T20:14:23.183Z,17.83
2023-01-31T20:16:52.050Z,17.83
2023-01-31T20:19:22.665Z,18.03
2023-01-31T20:21:52.250Z,17.98
2023-01-31T20:24:21.325Z,18.04
2023-01-31T20:26:50.046Z,17.98
2023-01-31T20:29:18.995Z,17.99
2023-01-31T20:31:48.854Z,17.95
2023-01-31T20:34:17.863Z,17.85
2023-01-31T20:36:46.499Z,17.84
2023-01-31T20:39:15.559Z,17.87
2023-01-31T20:41:44.169Z,17.84
2023-01-31T20:44:13.128Z,17.81
2023-01-31T20:46:41.841Z,17.78
2023-01-31T20:49:12.149Z,17.70
2023-01-31T20:51:40.879Z,17.67
2023-01-31T20:54:09.868Z,17.64
2023-01-31T20:56:38.777Z,17.63
2023-01-31T20:59:07.793Z,17.58
2023-01-31T21:01:36.789Z,17.52
2023-01-31T21:04:08.276Z,17.50
2023-01-31T21:06:37.114Z,17.47
2023-01-31T21:09:07.503Z,17.45
2023-01-31T21:11:36.328Z,17.43
2023-01-31T21:14:05.281Z,17.40
2023-01-31T21:16:33.991Z,17.42
2023-01-31T21:19:03.041Z,17.48
2023-01-31T21:21:33.538Z,17.50
2023-01-31T21:24:04.800Z,17.54
2023-01-31T21:26:33.441Z,17.62
2023-01-31T21:29:02.759Z,17.63
2023-01-31T21:31:31.681Z,17.65
2023-01-31T21:34:05.699Z,17.73
2023-01-31T21:36:36.506Z,17.80
2023-01-31T21:39:05.597Z,17.79
2023-01-31T21:41:53.099Z,17.91
2023-01-31T21:44:22.091Z,17.95
2023-01-31T21:46:50.865Z,17.94
2023-01-31T21:49:19.800Z,18.01
2023-01-31T21:51:48.490Z,18.06
2023-01-31T21:54:17.609Z,17.96
2023-01-31T21:56:46.304Z,18.03
2023-01-31T21:59:15.365Z,17.93
2023-01-31T22:01:44.100Z,17.91
2023-01-31T22:04:13.069Z,17.83
2023-01-31T22:06:42.517Z,17.82
2023-01-31T22:09:12.880Z,17.74
2023-01-31T22:11:42.747Z,17.70
2023-01-31T22:14:16.151Z,17.65
2023-01-31T22:16:45.029Z,17.59
2023-01-31T22:19:14.398Z,17.56
2023-01-31T22:21:43.549Z,17.56
2023-01-31T22:24:12.628Z,17.52
2023-01-31T22:26:42.977Z,17.48
2023-01-31T22:29:14.472Z,17.37
2023-01-31T22:31:44.030Z,17.33
2023-01-31T22:34:16.624Z,17.35
2023-01-31T22:36:45.264Z,17.31
2023-01-31T22:39:16.247Z,17.23
2023-01-31T22:41:45.340Z,17.23
2023-01-31T22:44:14.095Z,17.20
2023-01-31T22:46:42.586Z,17.17
2023-01-31T22:49:11.290Z,17.12
2023-01-31T22:51:40.725Z,17.10
2023-01-31T22:54:10.498Z,17.07
2023-01-31T22:56:38.907Z,17.02
2023-01-31T22:59:10.036Z,16.99
2023-01-31T23:01:38.782Z,16.94
2023-01-31T23:04:08.954Z,16.91
2023-01-31T23:06:38.177Z,16.86
2023-01-31T23:09:06.863Z,16.86
2023-01-31T23:11:35.213Z,16.83
2023-01-31T23:14:03.865Z,16.78
2023-01-31T23:16:50.642Z,16.75
2023-01-31T23:19:19.343Z,16.74
2023-01-31T23:21:49.158Z,16.70
2023-01-31T23:24:19.257Z,16.70
2023-01-31T23:26:47.840Z,16.65
2023-01-31T23:29:16.578Z,16.62
2023-01-31T23:31:45.073Z,16.61
2023-01-31T23:34:13.894Z,16.57
2023-01-31T23:36:42.212Z,16.56
2023-01-31T23:39:11.233Z,16.51
2023-01-31T23:41:39.665Z,16.49
2023-01-31T23:44:09.059Z,16.48
2023-01-31T23:46:37.557Z,16.45
2023-01-31T23:49:06.528Z,16.41
2023-01-31T23:51:36.254Z,16.35
2023-01-31T23:54:05.005Z,16.34
2023-01-31T23:56:33.845Z,16.35
2023-01-31T23:59:02.669Z,16.33
